createdAt,value
2023-05-05T00:00:44.472Z,12.52
2023-05-05T00:01:44.444Z,12.54
2023-05-05T00:02:44.459Z,12.54
2023-05-05T00:03:44.502Z,12.54
2023-05-05T00:04:44.416Z,12.56
2023-05-05T00:05:44.389Z,12.54
2023-05-05T00:06:44.399Z,12.56
2023-05-05T00:07:44.397Z,12.54
2023-05-05T00:08:44.348Z,12.51
2023-05-05T00:09:44.365Z,12.51
2023-05-05T00:10:44.334Z,12.54
2023-05-05T00:11:44.333Z,12.56
2023-05-05T00:12:44.385Z,12.52
2023-05-05T00:13:44.325Z,12.54
2023-05-05T00:14:44.326Z,12.54
2023-05-05T00:15:44.290Z,12.54
2023-05-05T00:16:44.312Z,12.56
2023-05-05T00:17:44.312Z,12.56
2023-05-05T00:18:44.276Z,12.54
2023-05-05T00:19:44.263Z,12.56
2023-05-05T00:20:44.235Z,12.56
2023-05-05T00:21:44.239Z,12.54
2023-05-05T00:22:44.211Z,12.52
2023-05-05T00:23:44.213Z,12.52
2023-05-05T00:24:44.217Z,12.54
2023-05-05T00:25:44.196Z,12.54
2023-05-05T00:26:44.192Z,12.52
2023-05-05T00:27:44.174Z,12.51
2023-05-05T00:28:44.142Z,12.49
2023-05-05T00:29:44.174Z,12.46
2023-05-05T00:30:44.148Z,12.48
2023-05-05T00:31:44.173Z,12.46
2023-05-05T00:32:44.172Z,12.46
2023-05-05T00:33:44.137Z,12.48
2023-05-05T00:34:44.083Z,12.46
2023-05-05T00:35:44.105Z,12.45
2023-05-05T00:36:44.077Z,12.45
2023-05-05T00:37:44.074Z,12.42
2023-05-05T00:38:44.089Z,12.42
2023-05-05T00:39:44.066Z,12.39
2023-05-05T00:40:44.047Z,12.39
2023-05-05T00:41:44.043Z,12.38
2023-05-05T00:42:44.031Z,12.39
2023-05-05T00:43:44.020Z,12.34
2023-05-05T00:44:44.017Z,12.31
2023-05-05T00:45:43.974Z,12.31
2023-05-05T00:46:44.067Z,12.30
2023-05-05T00:47:44.012Z,12.29
2023-05-05T00:48:43.959Z,12.27
2023-05-05T00:49:43.950Z,12.26
2023-05-05T00:50:43.980Z,12.24
2023-05-05T00:51:43.928Z,12.23
2023-05-05T00:52:43.922Z,12.21
2023-05-05T00:53:43.907Z,12.21
2023-05-05T00:54:43.925Z,12.21
2023-05-05T00:55:43.894Z,12.19
2023-05-05T00:56:43.856Z,12.19
2023-05-05T00:57:43.853Z,12.19
2023-05-05T00:58:43.857Z,12.19
2023-05-05T00:59:43.857Z,12.16
2023-05-05T01:00:43.855Z,12.19
2023-05-05T01:01:43.883Z,12.16
2023-05-05T01:02:43.908Z,12.15
2023-05-05T01:03:43.919Z,12.12
2023-05-05T01:04:43.836Z,12.13
2023-05-05T01:05:43.795Z,12.12
2023-05-05T01:06:43.777Z,12.12
2023-05-05T01:07:43.792Z,12.13
2023-05-05T01:08:43.738Z,12.13
2023-05-05T01:09:43.736Z,12.13
2023-05-05T01:10:43.754Z,12.15
2023-05-05T01:11:43.708Z,12.16
2023-05-05T01:12:43.729Z,12.20
2023-05-05T01:13:43.714Z,12.19
2023-05-05T01:14:43.687Z,12.19
2023-05-05T01:15:43.688Z,12.19
2023-05-05T01:16:43.699Z,12.20
2023-05-05T01:17:43.690Z,12.20
2023-05-05T01:18:43.638Z,12.20
2023-05-05T01:19:43.655Z,12.21
2023-05-05T01:20:43.622Z,12.21
2023-05-05T01:21:43.630Z,12.23
2023-05-05T01:22:43.798Z,12.21
2023-05-05T01:23:43.610Z,12.20
2023-05-05T01:24:43.581Z,12.16
2023-05-05T01:25:44.543Z,12.16
2023-05-05T01:26:43.729Z,12.19
2023-05-05T01:27:43.570Z,12.19
2023-05-05T01:28:43.532Z,12.19
2023-05-05T01:29:43.515Z,12.16
2023-05-05T01:30:43.535Z,12.19
2023-05-05T01:31:43.564Z,12.19
2023-05-05T01:32:43.521Z,12.19
2023-05-05T01:33:43.498Z,12.20
2023-05-05T01:34:43.486Z,12.20
2023-05-05T01:35:43.497Z,12.19
2023-05-05T01:36:43.439Z,12.20
2023-05-05T01:37:43.449Z,12.20
2023-05-05T01:38:43.432Z,12.16
2023-05-05T01:39:43.431Z,12.13
2023-05-05T01:40:43.694Z,12.12
2023-05-05T01:41:43.400Z,12.13
2023-05-05T01:42:43.392Z,12.09
2023-05-05T01:43:43.385Z,12.08
2023-05-05T01:44:43.371Z,12.05
2023-05-05T01:45:43.403Z,12.04
2023-05-05T01:46:43.427Z,12.02
2023-05-05T01:47:43.384Z,12.01
2023-05-05T01:48:43.329Z,12.04
2023-05-05T01:49:44.042Z,12.04
2023-05-05T01:50:43.322Z,12.04
2023-05-05T01:51:43.328Z,12.04
2023-05-05T01:52:43.308Z,12.04
2023-05-05T01:53:43.277Z,12.05
2023-05-05T01:54:43.280Z,12.04
2023-05-05T01:55:43.275Z,12.05
2023-05-05T01:56:43.269Z,12.06
2023-05-05T01:57:43.237Z,12.06
2023-05-05T01:58:43.905Z,12.05
2023-05-05T01:59:43.242Z,12.08
2023-05-05T02:00:43.234Z,12.06
2023-05-05T02:01:43.271Z,12.05
2023-05-05T02:02:43.242Z,12.06
2023-05-05T02:03:43.171Z,12.08
2023-05-05T02:04:43.198Z,12.08
2023-05-05T02:05:43.180Z,12.09
2023-05-05T02:06:43.149Z,12.08
2023-05-05T02:07:43.127Z,12.09
2023-05-05T02:08:44.046Z,12.09
2023-05-05T02:09:43.115Z,12.11
2023-05-05T02:10:43.136Z,12.08
2023-05-05T02:11:43.085Z,12.09
2023-05-05T02:12:43.115Z,12.11
2023-05-05T02:13:43.156Z,12.11
2023-05-05T02:14:43.084Z,12.11
2023-05-05T02:15:43.092Z,12.12
2023-05-05T02:16:43.073Z,12.09
2023-05-05T02:17:43.066Z,12.11
2023-05-05T02:18:43.024Z,12.12
2023-05-05T02:19:42.999Z,12.13
2023-05-05T02:20:43.016Z,12.13
2023-05-05T02:21:42.980Z,12.12
2023-05-05T02:22:42.991Z,12.15
2023-05-05T02:23:42.969Z,12.12
2023-05-05T02:24:42.968Z,12.12
2023-05-05T02:25:43.581Z,12.11
2023-05-05T02:26:42.942Z,12.09
2023-05-05T02:27:42.962Z,12.09
2023-05-05T02:28:42.924Z,12.09
2023-05-05T02:29:42.898Z,12.06
2023-05-05T02:30:42.918Z,12.05
2023-05-05T02:31:42.930Z,12.06
2023-05-05T02:32:42.911Z,12.05
2023-05-05T02:33:42.861Z,12.04
2023-05-05T02:34:42.863Z,12.06
2023-05-05T02:35:42.923Z,12.06
2023-05-05T02:36:42.839Z,12.08
2023-05-05T02:37:42.822Z,12.06
2023-05-05T02:38:42.814Z,12.04
2023-05-05T02:39:43.065Z,12.02
2023-05-05T02:40:42.781Z,12.02
2023-05-05T02:41:42.804Z,12.01
2023-05-05T02:42:42.833Z,12.02
2023-05-05T02:43:42.771Z,12.01
2023-05-05T02:44:42.754Z,12.01
2023-05-05T02:45:42.736Z,12.02
2023-05-05T02:46:42.879Z,12.01
2023-05-05T02:47:42.751Z,11.99
2023-05-05T02:48:42.711Z,11.99
2023-05-05T02:49:42.716Z,11.99
2023-05-05T02:50:42.691Z,11.96
2023-05-05T02:51:42.693Z,11.96
2023-05-05T02:52:42.680Z,11.93
2023-05-05T02:53:42.826Z,11.93
2023-05-05T02:54:42.655Z,11.93
2023-05-05T02:55:42.622Z,11.90
2023-05-05T02:56:42.620Z,11.89
2023-05-05T02:57:42.626Z,11.86
2023-05-05T02:58:42.626Z,11.85
2023-05-05T02:59:42.603Z,11.82
2023-05-05T03:00:42.593Z,11.82
2023-05-05T03:01:43.270Z,11.80
2023-05-05T03:02:42.631Z,11.80
2023-05-05T03:03:42.602Z,11.78
2023-05-05T03:04:42.569Z,11.78
2023-05-05T03:05:42.526Z,11.78
2023-05-05T03:06:42.533Z,11.78
2023-05-05T03:07:42.583Z,11.78
2023-05-05T03:08:42.506Z,11.77
2023-05-05T03:09:42.480Z,11.75
2023-05-05T03:10:42.628Z,11.75
2023-05-05T03:11:42.501Z,11.77
2023-05-05T03:12:42.508Z,11.75
2023-05-05T03:13:42.472Z,11.70
2023-05-05T03:14:42.457Z,11.70
2023-05-05T03:15:42.421Z,11.68
2023-05-05T03:16:42.561Z,11.67
2023-05-05T03:17:42.499Z,11.65
2023-05-05T03:18:42.446Z,11.65
2023-05-05T03:19:42.380Z,11.64
2023-05-05T03:20:42.364Z,11.67
2023-05-05T03:21:42.400Z,11.62
2023-05-05T03:22:42.361Z,11.61
2023-05-05T03:23:42.464Z,11.64
2023-05-05T03:24:42.350Z,11.61
2023-05-05T03:25:42.346Z,11.61
2023-05-05T03:26:42.322Z,11.59
2023-05-05T03:27:42.319Z,11.57
2023-05-05T03:28:42.304Z,11.57
2023-05-05T03:29:42.285Z,11.57
2023-05-05T03:30:42.269Z,11.57
2023-05-05T03:31:42.314Z,11.61
2023-05-05T03:32:42.275Z,11.59
2023-05-05T03:33:42.231Z,11.61
2023-05-05T03:34:42.254Z,11.59
2023-05-05T03:35:42.233Z,11.57
2023-05-05T03:36:42.247Z,11.56
2023-05-05T03:37:42.206Z,11.56
2023-05-05T03:38:42.202Z,11.59
2023-05-05T03:39:42.204Z,11.59
2023-05-05T03:40:44.530Z,11.59
2023-05-05T03:41:42.147Z,11.61
2023-05-05T03:42:42.176Z,11.61
2023-05-05T03:43:42.136Z,11.61
2023-05-05T03:44:42.131Z,11.59
2023-05-05T03:45:42.164Z,11.61
2023-05-05T03:46:42.111Z,11.62
2023-05-05T03:47:42.131Z,11.59
2023-05-05T03:48:42.118Z,11.59
2023-05-05T03:49:42.088Z,11.57
2023-05-05T03:50:42.083Z,11.59
2023-05-05T03:51:42.232Z,11.56
2023-05-05T03:52:42.064Z,11.54
2023-05-05T03:53:42.055Z,11.54
2023-05-05T03:54:42.026Z,11.56
2023-05-05T03:55:42.015Z,11.56
2023-05-05T03:56:42.005Z,11.54
2023-05-05T03:57:42.016Z,11.57
2023-05-05T03:58:42.255Z,11.57
2023-05-05T03:59:42.580Z,11.56
2023-05-05T04:00:41.976Z,11.57
2023-05-05T04:01:41.957Z,11.59
2023-05-05T04:02:42.080Z,11.62
2023-05-05T04:03:42.046Z,11.62
2023-05-05T04:04:41.941Z,11.65
2023-05-05T04:05:41.921Z,11.68
2023-05-05T04:06:41.906Z,11.68
2023-05-05T04:07:41.901Z,11.70
2023-05-05T04:08:41.880Z,11.71
2023-05-05T04:09:41.871Z,11.74
2023-05-05T04:10:41.892Z,11.74
2023-05-05T04:11:41.865Z,11.75
2023-05-05T04:12:41.930Z,11.77
2023-05-05T04:13:41.836Z,11.77
2023-05-05T04:31:48.017Z,12.06
2023-05-05T04:32:55.175Z,12.08
2023-05-05T04:33:48.838Z,12.08
2023-05-05T04:34:48.464Z,12.09
2023-05-05T04:35:49.130Z,12.12
2023-05-05T04:36:48.425Z,12.11
2023-05-05T04:37:54.981Z,12.12
2023-05-05T04:38:48.411Z,12.13
2023-05-05T04:39:48.435Z,12.15
2023-05-05T04:40:48.412Z,12.16
2023-05-05T04:41:48.548Z,12.19
2023-05-05T04:42:57.992Z,12.19
2023-05-05T04:43:48.345Z,12.20
2023-05-05T04:44:48.372Z,12.20
2023-05-05T04:45:48.388Z,12.24
2023-05-05T04:46:48.352Z,12.23
2023-05-05T04:47:48.369Z,12.24
2023-05-05T04:48:48.720Z,12.23
2023-05-05T04:49:48.317Z,12.23
2023-05-05T04:50:48.272Z,12.24
2023-05-05T04:51:48.436Z,12.23
2023-05-05T04:52:48.596Z,12.24
2023-05-05T04:53:51.248Z,12.24
2023-05-05T04:54:48.231Z,12.23
2023-05-05T04:55:48.258Z,12.26
2023-05-05T04:56:48.372Z,12.26
2023-05-05T04:57:48.218Z,12.26
2023-05-05T04:58:48.854Z,12.27
2023-05-05T04:59:48.200Z,12.27
2023-05-05T05:00:48.194Z,12.29
2023-05-05T05:01:48.253Z,12.30
2023-05-05T05:02:48.223Z,12.30
2023-05-05T05:03:48.205Z,12.33
2023-05-05T05:04:48.144Z,12.37
2023-05-05T05:05:48.125Z,12.38
2023-05-05T05:06:48.168Z,12.39
2023-05-05T05:07:48.109Z,12.39
2023-05-05T05:08:48.244Z,12.41
2023-05-05T05:09:48.086Z,12.41
2023-05-05T05:10:48.091Z,12.41
2023-05-05T05:11:48.377Z,12.42
2023-05-05T05:12:48.140Z,12.44
2023-05-05T05:13:48.020Z,12.46
2023-05-05T05:14:48.332Z,12.46
2023-05-05T05:15:48.041Z,12.48
2023-05-05T05:16:48.005Z,12.48
2023-05-05T05:17:47.991Z,12.51
2023-05-05T05:18:47.967Z,12.52
2023-05-05T05:19:47.994Z,12.52
2023-05-05T05:20:47.957Z,12.52
2023-05-05T05:21:47.951Z,12.56
2023-05-05T05:22:47.929Z,12.59
2023-05-05T05:23:47.933Z,12.60
2023-05-05T05:24:47.928Z,12.63
2023-05-05T05:25:47.915Z,12.63
2023-05-05T05:26:47.890Z,12.66
2023-05-05T05:27:55.252Z,12.67
2023-05-05T05:28:47.922Z,12.70
2023-05-05T05:29:47.869Z,12.69
2023-05-05T05:30:47.888Z,12.74
2023-05-05T05:31:47.853Z,12.77
2023-05-05T05:32:47.848Z,12.78
2023-05-05T05:33:47.889Z,12.79
2023-05-05T05:34:47.823Z,12.81
2023-05-05T05:35:47.840Z,12.84
2023-05-05T05:36:47.782Z,12.85
2023-05-05T05:37:47.786Z,12.87
2023-05-05T05:38:47.760Z,12.92
2023-05-05T05:39:47.810Z,12.95
2023-05-05T05:40:47.740Z,12.97
2023-05-05T05:41:48.401Z,13.00
2023-05-05T05:42:47.806Z,13.04
2023-05-05T05:43:47.724Z,13.07
2023-05-05T05:44:47.898Z,13.12
2023-05-05T05:45:47.952Z,13.18
2023-05-05T05:46:47.683Z,13.21
2023-05-05T05:47:47.742Z,13.24
2023-05-05T05:48:47.703Z,13.27
2023-05-05T05:49:47.669Z,13.29
2023-05-05T05:50:47.888Z,13.32
2023-05-05T05:51:47.634Z,13.36
2023-05-05T05:52:48.142Z,13.36
2023-05-05T05:53:47.599Z,13.36
2023-05-05T05:54:47.594Z,13.36
2023-05-05T05:55:47.583Z,13.37
2023-05-05T05:56:47.570Z,13.40
2023-05-05T05:57:47.568Z,13.40
2023-05-05T05:58:47.561Z,13.43
2023-05-05T05:59:47.573Z,13.41
2023-05-05T06:00:47.534Z,13.46
2023-05-05T06:01:47.533Z,13.47
2023-05-05T06:02:47.722Z,13.49
2023-05-05T06:03:47.553Z,13.51
2023-05-05T06:04:52.805Z,13.54
2023-05-05T06:05:47.486Z,13.55
2023-05-05T06:06:47.467Z,13.58
2023-05-05T06:07:47.447Z,13.61
2023-05-05T06:08:47.449Z,13.62
2023-05-05T06:09:48.230Z,13.65
2023-05-05T06:10:48.483Z,13.69
2023-05-05T06:11:47.431Z,13.71
2023-05-05T06:12:47.416Z,13.73
2023-05-05T06:13:47.397Z,13.74
2023-05-05T06:14:47.408Z,13.79
2023-05-05T06:15:47.383Z,13.80
2023-05-05T06:18:27.969Z,13.84
2023-05-05T06:19:28.871Z,13.87
2023-05-05T06:20:28.891Z,13.89
2023-05-05T06:21:28.832Z,13.92
2023-05-05T06:22:28.805Z,13.96
2023-05-05T06:23:28.792Z,13.98
2023-05-05T06:24:28.801Z,14.01
2023-05-05T06:25:28.799Z,14.01
2023-05-05T06:26:28.860Z,14.02
2023-05-05T06:27:28.778Z,14.09
2023-05-05T06:28:28.752Z,14.12
2023-05-05T06:29:28.757Z,14.14
2023-05-05T06:30:28.802Z,14.16
2023-05-05T06:31:28.760Z,14.20
2023-05-05T06:32:28.716Z,14.19
2023-05-05T06:33:28.700Z,14.21
2023-05-05T06:34:28.687Z,14.28
2023-05-05T06:35:28.696Z,14.32
2023-05-05T06:36:28.716Z,14.35
2023-05-05T06:37:28.662Z,14.37
2023-05-05T06:38:28.646Z,14.42
2023-05-05T06:39:28.622Z,14.46
2023-05-05T06:40:28.677Z,14.53
2023-05-05T06:41:28.612Z,14.60
2023-05-05T06:42:28.620Z,14.64
2023-05-05T06:43:28.595Z,14.68
2023-05-05T06:44:28.590Z,14.71
2023-05-05T06:45:28.588Z,14.75
2023-05-05T06:46:28.578Z,14.78
2023-05-05T06:47:28.595Z,14.83
2023-05-05T06:48:28.565Z,14.90
2023-05-05T06:49:28.518Z,14.98
2023-05-05T06:50:28.521Z,15.06
2023-05-05T06:51:28.542Z,15.11
2023-05-05T06:52:28.508Z,15.20
2023-05-05T06:53:28.528Z,15.27
2023-05-05T06:54:28.468Z,15.35
2023-05-05T06:55:28.490Z,15.42
2023-05-05T06:56:28.478Z,15.48
2023-05-05T06:57:28.444Z,15.56
2023-05-05T06:58:28.446Z,15.54
2023-05-05T06:59:28.436Z,15.52
2023-05-05T07:00:28.454Z,15.51
2023-05-05T07:01:28.441Z,15.52
2023-05-05T07:02:28.448Z,15.52
2023-05-05T07:03:28.458Z,15.52
2023-05-05T07:04:28.406Z,15.51
2023-05-05T07:05:28.375Z,15.57
2023-05-05T07:06:28.361Z,15.57
2023-05-05T07:07:28.350Z,15.56
2023-05-05T07:08:28.338Z,15.56
2023-05-05T07:09:28.319Z,15.52
2023-05-05T07:10:28.319Z,15.51
2023-05-05T07:11:33.662Z,15.45
2023-05-05T07:12:28.326Z,15.42
2023-05-05T07:22:06.822Z,15.13
2023-05-05T07:23:14.349Z,15.12
2023-05-05T07:24:14.292Z,15.11
2023-05-05T07:25:18.273Z,15.09
2023-05-05T07:26:07.730Z,15.09
2023-05-05T07:27:07.725Z,15.08
2023-05-05T07:28:07.709Z,15.08
2023-05-05T07:29:07.764Z,15.06
2023-05-05T07:30:18.168Z,15.05
2023-05-05T07:31:07.676Z,15.09
2023-05-05T07:32:07.733Z,15.06
2023-05-05T07:33:07.714Z,15.08
2023-05-05T07:34:07.638Z,15.08
2023-05-05T07:35:09.805Z,15.09
2023-05-05T07:36:07.627Z,15.12
2023-05-05T07:37:07.622Z,15.11
2023-05-05T07:38:10.263Z,15.09
2023-05-05T07:39:07.583Z,15.11
2023-05-05T07:40:08.149Z,15.13
2023-05-05T07:41:07.552Z,15.12
2023-05-05T07:42:28.633Z,15.09
2023-05-05T07:43:07.561Z,15.06
2023-05-05T07:44:07.631Z,15.06
2023-05-05T07:45:09.090Z,15.06
2023-05-05T07:46:15.788Z,15.05
2023-05-05T07:47:07.504Z,15.03
2023-05-05T07:48:07.548Z,15.03
2023-05-05T07:49:07.481Z,15.02
2023-05-05T07:50:14.069Z,14.99
2023-05-05T07:51:15.484Z,14.95
2023-05-05T07:53:33.256Z,14.91
2023-05-05T07:54:34.104Z,14.88
2023-05-05T07:55:34.090Z,14.86
2023-05-05T07:56:34.082Z,14.81
2023-05-05T07:57:34.053Z,14.75
2023-05-05T07:58:34.083Z,14.72
2023-05-05T07:59:34.065Z,14.71
2023-05-05T08:00:34.104Z,14.65
2023-05-05T08:01:34.032Z,14.64
2023-05-05T08:02:34.133Z,14.57
2023-05-05T08:03:34.285Z,14.56
2023-05-05T08:04:34.042Z,14.50
2023-05-05T08:05:33.993Z,14.47
2023-05-05T08:06:33.986Z,14.44
2023-05-05T08:07:33.972Z,14.38
2023-05-05T08:08:33.967Z,14.34
2023-05-05T08:09:33.966Z,14.32
2023-05-05T08:10:33.962Z,14.29
2023-05-05T08:11:33.928Z,14.27
2023-05-05T08:12:34.008Z,14.21
2023-05-05T08:13:34.813Z,14.21
2023-05-05T08:14:33.890Z,14.17
2023-05-05T08:15:33.918Z,14.13
2023-05-05T08:16:34.026Z,14.12
2023-05-05T08:17:33.936Z,14.12
2023-05-05T08:18:33.880Z,14.09
2023-05-05T08:19:33.858Z,14.06
2023-05-05T08:20:33.879Z,14.07
2023-05-05T08:21:33.870Z,14.07
2023-05-05T08:22:33.898Z,14.09
2023-05-05T08:23:33.870Z,14.09
2023-05-05T08:24:33.811Z,14.10
2023-05-05T08:25:33.840Z,14.13
2023-05-05T08:26:33.767Z,14.13
2023-05-05T08:27:33.762Z,14.13
2023-05-05T08:28:33.740Z,14.16
2023-05-05T08:29:33.730Z,14.17
2023-05-05T08:30:33.732Z,14.17
2023-05-05T08:31:33.764Z,14.19
2023-05-05T08:32:33.764Z,14.20
2023-05-05T08:33:33.694Z,14.25
2023-05-05T08:34:33.670Z,14.28
2023-05-05T08:35:33.708Z,14.29
2023-05-05T08:36:33.699Z,14.34
2023-05-05T08:37:33.660Z,14.37
2023-05-05T08:38:37.196Z,14.43
2023-05-05T08:39:33.708Z,14.44
2023-05-05T08:40:33.743Z,14.46
2023-05-05T08:41:33.620Z,14.46
2023-05-05T08:42:38.613Z,14.46
2023-05-05T08:43:33.592Z,14.49
2023-05-05T08:44:33.592Z,14.52
2023-05-05T08:45:33.584Z,14.50
2023-05-05T08:46:33.603Z,14.52
2023-05-05T08:47:33.571Z,14.52
2023-05-05T08:48:33.543Z,14.52
2023-05-05T08:49:33.525Z,14.53
2023-05-05T08:50:33.529Z,14.52
2023-05-05T08:51:33.522Z,14.52
2023-05-05T08:52:33.518Z,14.50
2023-05-05T08:53:33.495Z,14.52
2023-05-05T08:54:33.473Z,14.53
2023-05-05T08:55:33.490Z,14.54
2023-05-05T08:56:33.454Z,14.60
2023-05-05T08:57:33.429Z,14.60
2023-05-05T08:58:33.413Z,14.61
2023-05-05T08:59:33.415Z,14.64
2023-05-05T09:00:33.428Z,14.68
2023-05-05T09:01:33.505Z,14.71
2023-05-05T09:02:33.437Z,14.75
2023-05-05T09:03:33.403Z,14.75
2023-05-05T09:04:33.389Z,14.80
2023-05-05T09:05:33.360Z,14.83
2023-05-05T09:06:33.358Z,14.84
2023-05-05T09:07:33.335Z,14.84
2023-05-05T09:08:33.314Z,14.86
2023-05-05T09:09:33.307Z,14.87
2023-05-05T09:10:33.310Z,14.87
2023-05-05T09:11:33.303Z,14.87
2023-05-05T09:12:33.340Z,14.88
2023-05-05T09:13:33.281Z,14.91
2023-05-05T09:14:33.299Z,14.93
2023-05-05T09:15:33.418Z,14.93
2023-05-05T09:16:33.363Z,14.94
2023-05-05T09:17:33.756Z,14.94
2023-05-05T09:18:33.368Z,14.94
2023-05-05T09:19:33.215Z,15.01
2023-05-05T09:20:33.195Z,15.01
2023-05-05T09:21:33.182Z,15.01
2023-05-05T09:22:33.438Z,15.05
2023-05-05T09:23:33.177Z,15.06
2023-05-05T09:24:33.181Z,15.09
2023-05-05T09:25:33.156Z,15.15
2023-05-05T09:26:33.146Z,15.20
2023-05-05T09:27:33.136Z,15.26
2023-05-05T09:28:33.158Z,15.27
2023-05-05T09:29:33.111Z,15.30
2023-05-05T09:30:33.106Z,15.33
2023-05-05T09:31:33.269Z,15.35
2023-05-05T09:32:33.135Z,15.36
2023-05-05T09:33:33.098Z,15.39
2023-05-05T09:34:33.068Z,15.41
2023-05-05T09:35:33.032Z,15.45
2023-05-05T09:36:33.025Z,15.48
2023-05-05T09:37:33.029Z,15.54
2023-05-05T09:38:33.036Z,15.57
2023-05-05T09:39:33.005Z,15.63
2023-05-05T09:40:32.999Z,15.68
2023-05-05T09:41:32.978Z,15.74
2023-05-05T09:42:32.981Z,15.81
2023-05-05T09:43:32.970Z,15.97
2023-05-05T09:44:32.976Z,16.67
2023-05-05T09:45:32.931Z,16.81
2023-05-05T09:46:33.014Z,17.50
2023-05-05T09:47:34.783Z,17.78
2023-05-05T09:48:32.967Z,18.61
2023-05-05T09:49:32.917Z,18.49
2023-05-05T09:50:32.918Z,19.35
2023-05-05T09:51:32.919Z,20.16
2023-05-05T09:52:32.882Z,20.76
2023-05-05T09:53:32.854Z,21.24
2023-05-05T09:54:32.861Z,21.59
2023-05-05T09:55:32.853Z,21.53
2023-05-05T09:56:32.845Z,21.64
2023-05-05T09:57:32.806Z,21.99
2023-05-05T09:58:32.916Z,22.43
2023-05-05T09:59:32.799Z,22.80
2023-05-05T10:00:32.800Z,23.04
2023-05-05T10:01:32.821Z,23.05
2023-05-05T10:02:32.849Z,23.15
2023-05-05T10:03:32.756Z,23.47
2023-05-05T10:04:32.840Z,23.67
2023-05-05T10:05:32.742Z,23.46
2023-05-05T10:06:32.762Z,23.02
2023-05-05T10:07:32.719Z,22.35
2023-05-05T10:08:32.741Z,21.78
2023-05-05T10:09:32.738Z,21.38
2023-05-05T10:10:32.697Z,20.98
2023-05-05T10:11:32.708Z,20.69
2023-05-05T10:12:32.712Z,20.49
2023-05-05T10:13:32.656Z,20.33
2023-05-05T10:14:32.649Z,20.10
2023-05-05T10:15:32.654Z,19.93
2023-05-05T10:16:32.848Z,19.69
2023-05-05T10:17:32.690Z,19.68
2023-05-05T10:18:32.643Z,19.65
2023-05-05T10:19:32.607Z,19.63
2023-05-05T10:20:32.602Z,19.60
2023-05-05T10:21:32.590Z,19.54
2023-05-05T10:22:32.590Z,19.51
2023-05-05T10:23:32.551Z,19.47
2023-05-05T10:24:32.554Z,19.58
2023-05-05T10:25:32.537Z,19.68
2023-05-05T10:26:32.600Z,19.68
2023-05-05T10:27:32.538Z,19.68
2023-05-05T10:28:32.516Z,19.65
2023-05-05T10:29:32.507Z,19.68
2023-05-05T10:30:32.518Z,19.70
2023-05-05T10:31:32.541Z,19.73
2023-05-05T10:33:32.615Z,19.78
2023-05-05T10:34:32.464Z,19.76
2023-05-05T10:35:32.451Z,19.73
2023-05-05T10:36:32.454Z,19.72
2023-05-05T10:37:32.419Z,19.72
2023-05-05T10:38:32.428Z,19.72
2023-05-05T10:39:32.408Z,19.72
2023-05-05T10:40:32.392Z,19.69
2023-05-05T10:41:32.412Z,19.76
2023-05-05T10:42:32.381Z,19.84
2023-05-05T10:43:32.372Z,19.90
2023-05-05T10:44:32.357Z,19.97
2023-05-05T10:45:32.419Z,19.98
2023-05-05T10:46:32.568Z,20.03
2023-05-05T10:47:32.544Z,20.03
2023-05-05T10:48:32.355Z,20.05
2023-05-05T10:49:32.426Z,20.08
2023-05-05T10:50:32.883Z,20.16
2023-05-05T10:51:39.910Z,20.13
2023-05-05T10:52:32.290Z,20.15
2023-05-05T10:53:32.297Z,20.20
2023-05-05T10:54:32.350Z,20.23
2023-05-05T10:55:32.251Z,20.20
2023-05-05T10:56:32.265Z,20.18
2023-05-05T10:57:32.219Z,20.16
2023-05-05T11:00:13.463Z,20.21
2023-05-05T11:01:12.887Z,20.24
2023-05-05T11:02:12.882Z,20.27
2023-05-05T11:03:12.914Z,20.27
2023-05-05T11:04:12.834Z,20.30
2023-05-05T11:05:13.205Z,20.35
2023-05-05T11:07:25.718Z,20.42
2023-05-05T11:08:26.670Z,20.47
2023-05-05T11:09:33.279Z,20.43
2023-05-05T11:10:26.668Z,20.35
2023-05-05T11:11:26.676Z,20.23
2023-05-05T11:12:33.300Z,20.09
2023-05-05T11:13:33.937Z,20.05
2023-05-05T11:14:26.613Z,20.00
2023-05-05T11:15:26.705Z,19.97
2023-05-05T11:16:26.641Z,19.94
2023-05-05T11:17:33.147Z,19.97
2023-05-05T11:18:26.571Z,19.98
2023-05-05T11:19:26.551Z,19.95
2023-05-05T11:20:26.815Z,19.97
2023-05-05T11:21:26.549Z,20.00
2023-05-05T11:22:26.545Z,19.98
2023-05-05T11:23:26.534Z,20.05
2023-05-05T11:24:42.231Z,20.03
2023-05-05T11:32:02.862Z,20.18
2023-05-05T11:33:45.837Z,20.27
2023-05-05T11:34:17.231Z,20.31
2023-05-05T11:35:08.149Z,20.33
2023-05-05T11:36:18.007Z,20.35
2023-05-05T11:37:01.541Z,20.33
2023-05-05T11:38:13.327Z,20.30
2023-05-05T11:39:01.527Z,20.31
2023-05-05T11:40:13.250Z,20.24
2023-05-05T11:42:40.823Z,20.21
2023-05-05T11:43:57.246Z,20.18
2023-05-05T11:44:49.087Z,20.13
2023-05-05T11:45:42.488Z,20.09
2023-05-05T11:48:10.295Z,20.02
2023-05-05T11:49:11.483Z,20.00
2023-05-05T11:50:03.758Z,19.95
2023-05-05T11:51:15.315Z,19.95
2023-05-05T11:52:13.600Z,19.95
2023-05-05T11:53:20.376Z,19.97
2023-05-05T11:54:03.723Z,20.08
2023-05-05T11:55:10.287Z,20.13
2023-05-05T11:56:11.124Z,20.18
2023-05-05T11:57:03.687Z,20.18
2023-05-05T11:58:03.681Z,20.18
2023-05-05T11:59:03.661Z,20.23
2023-05-05T12:00:11.054Z,20.27
2023-05-05T12:01:10.232Z,20.30
2023-05-05T12:02:14.306Z,20.31
2023-05-05T12:03:11.431Z,20.34
2023-05-05T12:04:13.600Z,20.34
2023-05-05T12:08:23.547Z,20.42
2023-05-05T12:09:25.555Z,20.39
2023-05-05T12:10:13.812Z,20.41
2023-05-05T12:11:13.817Z,20.41
2023-05-05T12:12:14.546Z,20.42
2023-05-05T12:13:13.846Z,20.41
2023-05-05T12:14:13.764Z,20.41
2023-05-05T12:15:13.779Z,20.35
2023-05-05T12:16:13.904Z,20.34
2023-05-05T12:17:13.907Z,20.33
2023-05-05T12:18:13.818Z,20.28
2023-05-05T12:19:13.722Z,20.25
2023-05-05T12:20:13.809Z,20.25
2023-05-05T12:21:13.693Z,20.25
2023-05-05T12:22:13.845Z,20.25
2023-05-05T12:23:13.773Z,20.28
2023-05-05T12:24:13.814Z,20.28
2023-05-05T12:25:13.817Z,20.28
2023-05-05T12:26:13.864Z,20.30
2023-05-05T12:27:13.856Z,20.28
2023-05-05T12:28:14.068Z,20.34
2023-05-05T12:29:14.565Z,20.35
2023-05-05T12:30:13.705Z,20.35
2023-05-05T12:31:13.692Z,20.33
2023-05-05T12:32:13.625Z,20.28
2023-05-05T12:33:13.780Z,20.31
2023-05-05T12:34:13.590Z,20.35
2023-05-05T12:35:17.067Z,20.39
2023-05-05T12:36:13.684Z,20.39
2023-05-05T12:37:13.668Z,20.34
2023-05-05T12:38:13.521Z,20.39
2023-05-05T12:39:14.304Z,20.41
2023-05-05T12:40:13.540Z,20.38
2023-05-05T12:41:13.583Z,20.35
2023-05-05T12:42:13.525Z,20.34
2023-05-05T12:43:23.976Z,20.33
2023-05-05T12:44:13.776Z,20.31
2023-05-05T12:45:13.455Z,20.28
2023-05-05T12:49:05.414Z,20.33
2023-05-05T12:50:03.110Z,20.34
2023-05-05T12:51:03.097Z,20.34
2023-05-05T12:52:03.063Z,20.28
2023-05-05T12:53:03.077Z,20.20
2023-05-05T12:54:03.058Z,20.13
2023-05-05T12:55:09.909Z,20.08
2023-05-05T12:56:04.086Z,20.02
2023-05-05T12:57:03.047Z,20.00
2023-05-05T12:58:03.675Z,19.98
2023-05-05T12:59:03.022Z,19.97
2023-05-05T13:00:02.992Z,19.94
2023-05-05T13:01:03.025Z,19.88
2023-05-05T13:02:03.023Z,19.83
2023-05-05T13:03:03.103Z,19.83
2023-05-05T13:04:02.949Z,19.83
2023-05-05T13:05:02.943Z,19.83
2023-05-05T13:06:02.951Z,19.83
2023-05-05T13:07:03.107Z,19.79
2023-05-05T13:08:02.887Z,19.76
2023-05-05T13:09:03.885Z,19.69
2023-05-05T13:10:02.914Z,19.69
2023-05-05T13:11:02.876Z,19.65
2023-05-05T13:12:02.924Z,19.61
2023-05-05T13:13:02.929Z,19.58
2023-05-05T13:14:02.884Z,19.54
2023-05-05T13:15:04.692Z,19.53
2023-05-05T13:16:03.944Z,19.51
2023-05-05T13:17:10.087Z,19.47
2023-05-05T13:18:03.063Z,19.43
2023-05-05T13:19:12.764Z,19.40
2023-05-05T13:20:02.796Z,19.39
2023-05-05T13:21:02.781Z,19.36
2023-05-05T13:22:02.769Z,19.35
2023-05-05T13:23:09.424Z,19.32
2023-05-05T13:24:20.752Z,19.29
2023-05-05T13:25:02.720Z,19.25
2023-05-05T13:26:10.839Z,19.20
2023-05-05T13:27:14.074Z,19.15
2023-05-05T13:28:02.689Z,19.14
2023-05-05T13:29:02.698Z,19.13
2023-05-05T13:30:02.687Z,19.10
2023-05-05T13:31:02.686Z,19.05
2023-05-05T13:32:02.662Z,19.02
2023-05-05T13:33:02.692Z,18.95
2023-05-05T13:34:02.627Z,18.87
2023-05-05T13:35:02.618Z,18.74
2023-05-05T13:36:02.634Z,18.55
2023-05-05T13:37:02.601Z,18.37
2023-05-05T13:38:02.597Z,18.27
2023-05-05T13:39:02.576Z,18.19
2023-05-05T13:40:02.566Z,18.12
2023-05-05T13:41:02.833Z,18.10